Time;durP1;ratioP1;P1;durP2;ratioP2;P2;SDS_P1;SDS_P2;PMS_P1;PMS_P2;Temp;Humidity;BMP_temperature;BMP_pressure;BME280_temperature;BME280_humidity;BME280_pressure;Samples;Min_cycle;Max_cycle;Signal;HPM_P1;HPM_P2
2022/05/23 00:01:48;;;;;;;3.37;1.70;;;;;;;;;;4498401;78;28509;-76
2022/05/23 00:07:55;;;;;;;3.98;2.00;;;;;;;;;;4420302;78;28436;-76
2022/05/23 00:13:56;;;;;;;2.95;1.60;;;;;;;;;;4481498;78;28524;-76
2022/05/23 00:19:57;;;;;;;4.17;1.70;;;;;;;;;;4476825;78;28532;-77
2022/05/23 00:25:58;;;;;;;4.87;1.92;;;;;;;;;;4451285;78;28552;-76
2022/05/23 00:38:18;;;;;;;3.42;2.00;;;;;;;;;;4486403;78;28509;-81
2022/05/23 00:44:21;;;;;;;3.17;1.90;;;;;;;;;;4414332;78;28474;-82
2022/05/23 00:50:31;;;;;;;3.87;1.80;;;;;;;;;;4438717;78;28536;-80
2022/05/23 00:56:34;;;;;;;3.95;1.80;;;;;;;;;;4498986;78;28523;-80
2022/05/23 01:02:36;;;;;;;4.22;1.92;;;;;;;;;;4442987;78;28543;-80
2022/05/23 01:08:38;;;;;;;3.35;1.90;;;;;;;;;;4427755;78;28450;-81
2022/05/23 01:14:47;;;;;;;5.33;2.30;;;;;;;;;;4465529;78;28566;-81
2022/05/23 01:20:59;;;;;;;3.33;2.20;;;;;;;;;;4475425;78;28523;-81
2022/05/23 01:27:02;;;;;;;3.02;1.95;;;;;;;;;;4449002;78;28500;-81
2022/05/23 01:33:09;;;;;;;5.87;2.45;;;;;;;;;;4453280;79;28501;-81
2022/05/23 01:39:13;;;;;;;5.22;2.60;;;;;;;;;;4429493;78;28551;-82
2022/05/23 01:45:16;;;;;;;5.97;3.10;;;;;;;;;;4444737;78;28538;-81
2022/05/23 01:51:17;;;;;;;5.50;2.58;;;;;;;;;;4443502;78;28496;-81
2022/05/23 01:57:23;;;;;;;7.65;3.87;;;;;;;;;;4424776;78;28592;-83
2022/05/23 02:03:26;;;;;;;4.28;2.40;;;;;;;;;;4417541;80;28499;-82
2022/05/23 02:09:29;;;;;;;5.42;3.10;;;;;;;;;;4386802;79;28551;-82
2022/05/23 02:15:32;;;;;;;4.67;2.80;;;;;;;;;;4441200;79;28529;-81
2022/05/23 02:21:41;;;;;;;5.83;3.00;;;;;;;;;;4394663;78;28453;-81
2022/05/23 02:27:42;;;;;;;4.55;2.90;;;;;;;;;;4383546;79;28488;-81
2022/05/23 02:33:43;;;;;;;5.90;3.30;;;;;;;;;;4419488;80;28511;-81
2022/05/23 02:39:58;;;;;;;5.23;2.80;;;;;;;;;;4394161;80;28504;-81
2022/05/23 02:46:01;;;;;;;4.75;2.98;;;;;;;;;;4415596;80;28477;-81
2022/05/23 02:52:10;;;;;;;6.22;3.25;;;;;;;;;;4371378;80;28503;-83
2022/05/23 02:58:13;;;;;;;6.30;3.75;;;;;;;;;;4402252;80;29116;-83
2022/05/23 03:04:14;;;;;;;7.10;3.67;;;;;;;;;;4371622;79;28498;-81
2022/05/23 03:10:21;;;;;;;6.37;3.40;;;;;;;;;;4395589;80;28454;-81
2022/05/23 03:16:22;;;;;;;7.35;3.37;;;;;;;;;;4436424;80;28489;-81
2022/05/23 03:28:49;;;;;;;5.60;3.30;;;;;;;;;;4436378;79;28454;-81
2022/05/23 03:34:56;;;;;;;5.22;3.15;;;;;;;;;;4438050;79;28477;-81
2022/05/23 03:41:06;;;;;;;7.08;3.50;;;;;;;;;;4456848;79;28477;-80
2022/05/23 03:47:07;;;;;;;6.00;3.72;;;;;;;;;;4396264;79;28446;-82
2022/05/23 03:53:14;;;;;;;5.45;3.40;;;;;;;;;;4414569;79;28513;-82
2022/05/23 03:59:17;;;;;;;4.83;3.10;;;;;;;;;;4418136;79;28559;-82
2022/05/23 04:05:27;;;;;;;7.60;3.70;;;;;;;;;;4414563;80;28494;-81
2022/05/23 04:11:30;;;;;;;5.53;3.12;;;;;;;;;;4306696;80;28538;-83
2022/05/23 04:17:31;;;;;;;4.62;3.15;;;;;;;;;;4327375;82;28919;-83
2022/05/23 04:23:38;;;;;;;8.95;3.87;;;;;;;;;;4388584;79;28532;-82
2022/05/23 04:29:39;;;;;;;;;;;;;;;;;;4301317;81;28555;-82
2022/05/23 04:35:46;;;;;;;5.95;4.05;;;;;;;;;;4372967;80;20229;-80
2022/05/23 04:41:56;;;;;;;7.53;4.10;;;;;;;;;;4309405;80;28532;-80
2022/05/23 04:54:16;;;;;;;7.25;3.95;;;;;;;;;;4313766;80;28477;-77
2022/05/23 05:00:20;;;;;;;7.97;3.58;;;;;;;;;;4461693;79;28544;-77
2022/05/23 05:06:24;;;;;;;6.37;3.80;;;;;;;;;;4335658;80;28533;-76
2022/05/23 05:12:26;;;;;;;7.80;3.62;;;;;;;;;;4363275;81;28510;-77
2022/05/23 05:18:27;;;;;;;6.83;3.87;;;;;;;;;;4404043;81;28496;-80
2022/05/23 05:24:52;;;;;;;4.95;3.52;;;;;;;;;;4365384;80;28484;-80
2022/05/23 05:31:09;;;;;;;5.62;3.67;;;;;;;;;;4447377;78;28525;-78
2022/05/23 05:37:12;;;;;;;5.67;3.67;;;;;;;;;;4426161;79;28523;-81
2022/05/23 05:43:16;;;;;;;6.92;3.58;;;;;;;;;;4413604;78;28489;-82
2022/05/23 05:49:22;;;;;;;6.47;3.52;;;;;;;;;;4448550;78;28549;-80
2022/05/23 05:55:23;;;;;;;4.80;3.42;;;;;;;;;;4444547;78;28519;-81
2022/05/23 06:01:25;;;;;;;4.15;2.60;;;;;;;;;;4439804;78;28529;-77
2022/05/23 06:13:55;;;;;;;4.67;2.60;;;;;;;;;;4408118;79;28577;-77
2022/05/23 06:20:16;;;;;;;3.35;2.08;;;;;;;;;;4388326;78;28480;-78
2022/05/23 06:26:21;;;;;;;4.50;2.37;;;;;;;;;;4445978;78;28473;-77
2022/05/23 06:32:42;;;;;;;3.27;2.15;;;;;;;;;;4394585;79;28498;-77
2022/05/23 06:38:50;;;;;;;6.35;2.47;;;;;;;;;;4428361;80;28484;-76
2022/05/23 06:45:10;;;;;;;3.65;2.33;;;;;;;;;;4383498;79;28490;-77
2022/05/23 06:51:30;;;;;;;4.25;2.20;;;;;;;;;;4438168;79;28547;-77
2022/05/23 06:57:37;;;;;;;3.15;2.30;;;;;;;;;;4402636;79;28565;-76
2022/05/23 07:03:44;;;;;;;3.60;2.12;;;;;;;;;;4324918;80;28473;-77
2022/05/23 07:16:14;;;;;;;;;;;;;;;;;;4366096;80;28532;-76
2022/05/23 07:22:16;;;;;;;1.47;1.00;;;;;;;;;;4352340;81;20220;-78
2022/05/23 07:28:18;;;;;;;1.80;1.20;;;;;;;;;;4355609;80;28500;-79
2022/05/23 07:34:20;;;;;;;2.87;1.70;;;;;;;;;;4453866;78;28477;-77
2022/05/23 07:40:21;;;;;;;3.40;1.40;;;;;;;;;;4451984;80;28540;-77
2022/05/23 07:46:26;;;;;;;2.17;1.60;;;;;;;;;;4453118;78;28509;-77
2022/05/23 07:52:28;;;;;;;3.75;2.08;;;;;;;;;;4413255;80;28524;-77
2022/05/23 08:04:49;;;;;;;3.72;1.47;;;;;;;;;;4427218;79;28476;-77
2022/05/23 08:10:50;;;;;;;1.72;1.30;;;;;;;;;;4433660;78;28527;-78
2022/05/23 08:16:52;;;;;;;2.85;1.37;;;;;;;;;;4392292;79;28446;-78
2022/05/23 08:23:01;;;;;;;1.65;1.30;;;;;;;;;;4483652;79;28523;-78
2022/05/23 08:29:13;;;;;;;1.98;0.90;;;;;;;;;;4423208;79;28626;-78
2022/05/23 08:35:24;;;;;;;1.60;0.93;;;;;;;;;;4322282;80;28524;-78
2022/05/23 08:41:31;;;;;;;2.52;0.98;;;;;;;;;;4360280;80;28507;-77
2022/05/23 08:47:36;;;;;;;3.20;1.12;;;;;;;;;;4326163;80;28540;-78
2022/05/23 08:53:43;;;;;;;4.78;2.10;;;;;;;;;;4500860;78;28526;-76
2022/05/23 09:00:11;;;;;;;2.55;0.93;;;;;;;;;;4457550;77;28510;-77
2022/05/23 09:06:15;;;;;;;2.87;1.10;;;;;;;;;;4482977;78;28506;-77
2022/05/23 09:12:17;;;;;;;4.53;1.20;;;;;;;;;;4497826;77;28519;-76
2022/05/23 09:18:23;;;;;;;2.60;1.20;;;;;;;;;;4473149;78;28471;-76
2022/05/23 09:24:26;;;;;;;2.22;1.20;;;;;;;;;;4466275;78;28553;-78
2022/05/23 09:30:29;;;;;;;1.67;1.10;;;;;;;;;;4495354;77;28743;-75
2022/05/23 09:36:37;;;;;;;3.77;1.42;;;;;;;;;;4492443;78;28549;-76
2022/05/23 09:49:21;;;;;;;2.12;1.27;;;;;;;;;;4496071;78;28468;-76
2022/05/23 09:55:31;;;;;;;3.42;1.00;;;;;;;;;;4497873;78;28479;-76
2022/05/23 10:01:36;;;;;;;2.58;1.20;;;;;;;;;;4420290;79;28537;-76
2022/05/23 10:07:38;;;;;;;3.65;1.40;;;;;;;;;;4467306;78;28503;-76
2022/05/23 10:13:40;;;;;;;2.27;1.20;;;;;;;;;;4462563;78;28516;-77
2022/05/23 10:19:41;;;;;;;4.40;1.17;;;;;;;;;;4496003;78;28497;-77
2022/05/23 10:25:44;;;;;;;2.55;1.25;;;;;;;;;;4515014;78;28528;-77
2022/05/23 10:31:49;;;;;;;6.65;1.70;;;;;;;;;;4471586;78;28558;-77
2022/05/23 10:37:51;;;;;;;2.08;1.22;;;;;;;;;;4451885;78;28517;-76
2022/05/23 10:43:57;;;;;;;2.60;1.57;;;;;;;;;;4410660;80;28525;-76
2022/05/23 10:50:13;;;;;;;2.43;1.50;;;;;;;;;;4340972;80;28512;-76
2022/05/23 11:03:18;;;;;;;2.83;1.40;;;;;;;;;;4413176;79;28637;-77
2022/05/23 11:09:33;;;;;;;2.40;1.60;;;;;;;;;;4465192;79;28523;-76
2022/05/23 11:15:51;;;;;;;3.30;1.50;;;;;;;;;;4295280;80;28536;-76
2022/05/23 11:22:02;;;;;;;2.70;1.60;;;;;;;;;;4368264;81;28552;-75
2022/05/23 11:34:38;;;;;;;3.62;1.55;;;;;;;;;;4418744;80;28462;-76
2022/05/23 11:40:44;;;;;;;3.72;1.95;;;;;;;;;;4383639;80;28497;-75
2022/05/23 11:47:06;;;;;;;3.65;1.50;;;;;;;;;;4357153;79;28551;-75
2022/05/23 12:00:28;;;;;;;2.75;1.52;;;;;;;;;;4418328;80;28537;-77
2022/05/23 12:06:38;;;;;;;5.47;1.47;;;;;;;;;;4419352;79;28486;-77
2022/05/23 12:12:47;;;;;;;3.37;1.25;;;;;;;;;;4379881;79;28486;-77
2022/05/23 12:19:07;;;;;;;5.15;1.45;;;;;;;;;;4400052;79;28510;-77
2022/05/23 12:25:13;;;;;;;2.67;1.17;;;;;;;;;;4392843;80;28480;-77
2022/05/23 12:31:14;;;;;;;;;;;;;;;;;;4346773;80;28609;-77
2022/05/23 12:37:28;;;;;;;4.40;1.40;;;;;;;;;;4374464;80;20283;-78
2022/05/23 12:43:49;;;;;;;2.25;1.40;;;;;;;;;;4400416;80;28487;-77
2022/05/23 12:50:01;;;;;;;1.92;1.35;;;;;;;;;;4335358;81;28465;-77
2022/05/23 12:56:12;;;;;;;3.92;1.15;;;;;;;;;;4356067;80;28582;-75
2022/05/23 13:02:16;;;;;;;3.55;1.22;;;;;;;;;;4355803;81;28584;-77
2022/05/23 13:08:19;;;;;;;4.08;1.35;;;;;;;;;;4354947;81;28528;-76
2022/05/23 13:14:20;;;;;;;1.40;1.10;;;;;;;;;;4375986;80;28518;-77
2022/05/23 13:26:51;;;;;;;3.17;1.07;;;;;;;;;;4361675;81;28510;-76
2022/05/23 13:33:07;;;;;;;2.65;0.90;;;;;;;;;;4390615;80;28506;-78
2022/05/23 13:39:14;;;;;;;0.90;0.82;;;;;;;;;;4391002;81;28483;-77
2022/05/23 13:45:25;;;;;;;2.25;1.00;;;;;;;;;;4390605;81;28588;-77
2022/05/23 13:51:34;;;;;;;2.58;1.00;;;;;;;;;;4375892;80;28490;-77
2022/05/23 13:57:37;;;;;;;4.25;1.12;;;;;;;;;;4356801;80;28571;-77
2022/05/23 14:03:40;;;;;;;2.55;1.17;;;;;;;;;;4369365;80;28535;-76
2022/05/23 14:09:45;;;;;;;5.95;1.92;;;;;;;;;;4363963;80;28548;-77
2022/05/23 14:15:48;;;;;;;4.07;1.10;;;;;;;;;;4354411;81;28544;-76
2022/05/23 14:21:51;;;;;;;2.30;0.90;;;;;;;;;;4331361;81;28471;-75
2022/05/23 14:27:53;;;;;;;1.47;0.90;;;;;;;;;;4348926;79;28562;-76
2022/05/23 14:33:56;;;;;;;3.52;1.10;;;;;;;;;;4382722;80;28538;-77
2022/05/23 14:40:03;;;;;;;3.30;1.27;;;;;;;;;;4381610;79;28526;-78
2022/05/23 14:46:24;;;;;;;2.70;1.15;;;;;;;;;;4383120;80;28508;-80
2022/05/23 14:52:39;;;;;;;3.62;1.70;;;;;;;;;;4368901;79;28457;-85
2022/05/23 15:05:05;;;;;;;2.20;1.15;;;;;;;;;;4381739;79;28551;-81
2022/05/23 15:11:05;;;;;;;1.47;1.00;;;;;;;;;;4410646;79;28545;-81
2022/05/23 15:17:07;;;;;;;1.90;1.00;;;;;;;;;;4471123;77;28482;-80
2022/05/23 15:23:09;;;;;;;3.02;1.12;;;;;;;;;;4468044;78;28608;-82
2022/05/23 15:29:11;;;;;;;2.35;1.00;;;;;;;;;;4449345;78;28534;-80
2022/05/23 15:35:15;;;;;;;3.87;1.42;;;;;;;;;;4512611;77;28565;-79
2022/05/23 15:41:16;;;;;;;2.47;1.17;;;;;;;;;;4496244;78;28476;-79
2022/05/23 15:47:19;;;;;;;2.02;1.02;;;;;;;;;;4500319;77;28566;-81
2022/05/23 15:53:27;;;;;;;3.45;1.10;;;;;;;;;;4499995;78;28475;-77
2022/05/23 15:59:37;;;;;;;2.98;1.67;;;;;;;;;;4502795;77;28522;-79
2022/05/23 16:05:44;;;;;;;2.65;1.20;;;;;;;;;;4488256;79;28533;-80
2022/05/23 16:11:49;;;;;;;2.55;1.30;;;;;;;;;;4477892;77;28526;-81
2022/05/23 16:17:51;;;;;;;2.08;1.00;;;;;;;;;;4500115;78;28483;-78
2022/05/23 16:23:52;;;;;;;2.42;1.20;;;;;;;;;;4491781;78;28677;-79
2022/05/23 16:29:53;;;;;;;1.40;1.20;;;;;;;;;;4493645;77;28596;-78
2022/05/23 16:42:16;;;;;;;5.17;1.80;;;;;;;;;;4408229;79;28564;-76
2022/05/23 17:35:23;;;;;;;4.47;2.50;;;;;;;;;;3191184;107;28611;-75
2022/05/23 17:41:25;;;;;;;2.55;1.72;;;;;;;;;;3294919;107;28571;-76
2022/05/23 17:54:32;;;;;;;;;;;;;;;;;;3303625;100;28572;-75
2022/05/23 18:00:36;;;;;;;2.30;1.80;;;;;;;;;;3572916;93;20718;-77
2022/05/23 18:20:18;;;;;;;4.00;2.42;;;;;;;;;;4428156;78;28559;-80
2022/05/23 18:26:19;;;;;;;4.85;2.17;;;;;;;;;;4447665;78;28527;-81
2022/05/23 18:32:21;;;;;;;3.40;2.20;;;;;;;;;;4473145;78;28466;-80
2022/05/23 18:38:21;;;;;;;4.72;2.35;;;;;;;;;;4478115;78;28596;-79
2022/05/23 18:44:23;;;;;;;3.70;2.10;;;;;;;;;;4479608;78;28603;-80
2022/05/23 18:50:26;;;;;;;7.62;3.95;;;;;;;;;;4474388;78;28537;-85
2022/05/23 18:56:27;;;;;;;5.70;3.72;;;;;;;;;;4463586;78;28502;-82
2022/05/23 19:02:31;;;;;;;5.17;2.80;;;;;;;;;;4493786;78;28509;-76
2022/05/23 19:08:33;;;;;;;3.30;2.27;;;;;;;;;;4474631;78;28540;-79
2022/05/23 19:14:34;;;;;;;3.15;2.20;;;;;;;;;;4496090;78;28519;-80
2022/05/23 19:20:35;;;;;;;4.40;2.45;;;;;;;;;;4479743;78;28518;-79
2022/05/23 19:26:36;;;;;;;4.17;2.52;;;;;;;;;;4495242;78;28562;-77
2022/05/23 19:32:39;;;;;;;2.95;2.27;;;;;;;;;;4479257;77;28565;-77
2022/05/23 19:38:45;;;;;;;5.83;3.00;;;;;;;;;;4514645;78;28530;-76
2022/05/23 19:44:47;;;;;;;5.22;2.95;;;;;;;;;;4493575;77;28507;-78
2022/05/23 19:50:48;;;;;;;7.75;3.85;;;;;;;;;;4514955;77;28463;-77
2022/05/23 19:56:49;;;;;;;5.22;2.95;;;;;;;;;;4494040;77;28474;-77
2022/05/23 20:09:11;;;;;;;6.03;2.90;;;;;;;;;;4479808;77;28531;-77
2022/05/23 20:15:23;;;;;;;6.35;3.40;;;;;;;;;;4493981;77;28632;-76
2022/05/23 20:21:24;;;;;;;5.55;3.50;;;;;;;;;;4494198;77;28575;-76
2022/05/23 20:27:31;;;;;;;4.80;3.05;;;;;;;;;;4490396;77;28446;-77
2022/05/23 20:33:31;;;;;;;;;;;;;;;;;;4517585;77;28514;-77
2022/05/23 20:39:32;;;;;;;7.22;3.83;;;;;;;;;;4514762;77;20318;-76
2022/05/23 20:45:42;;;;;;;5.97;3.67;;;;;;;;;;4473589;77;28467;-76
2022/05/23 20:51:49;;;;;;;6.70;3.85;;;;;;;;;;4521532;77;28506;-76
2022/05/23 20:57:51;;;;;;;7.42;3.80;;;;;;;;;;4490429;77;28547;-77
2022/05/23 21:03:58;;;;;;;8.38;3.60;;;;;;;;;;4492046;77;28511;-76
2022/05/23 21:10:06;;;;;;;6.15;3.85;;;;;;;;;;4515297;77;28482;-76
2022/05/23 21:16:07;;;;;;;8.98;4.40;;;;;;;;;;4531180;77;28547;-78
2022/05/23 21:22:10;;;;;;;7.97;4.00;;;;;;;;;;4525661;77;28524;-77
2022/05/23 21:28:11;;;;;;;8.25;4.60;;;;;;;;;;4516297;77;28510;-76
2022/05/23 21:34:12;;;;;;;8.85;4.33;;;;;;;;;;4502468;77;28595;-76
2022/05/23 21:46:41;;;;;;;9.20;3.62;;;;;;;;;;4459769;78;28551;-76
2022/05/23 21:52:42;;;;;;;5.87;3.12;;;;;;;;;;4413017;79;28552;-76
2022/05/23 21:58:42;;;;;;;5.30;3.40;;;;;;;;;;4473846;79;28518;-76
2022/05/23 22:04:43;;;;;;;5.70;3.20;;;;;;;;;;4443653;78;28508;-76
2022/05/23 22:10:44;;;;;;;9.28;3.80;;;;;;;;;;4479184;79;28563;-75
2022/05/23 22:16:45;;;;;;;6.60;3.67;;;;;;;;;;4488400;78;28518;-74
2022/05/23 22:22:47;;;;;;;7.00;3.40;;;;;;;;;;4449364;78;28495;-75
2022/05/23 22:28:55;;;;;;;6.55;3.67;;;;;;;;;;4466088;79;28529;-75
2022/05/23 22:34:56;;;;;;;7.95;4.22;;;;;;;;;;4487369;78;28519;-75
2022/05/23 22:41:04;;;;;;;6.30;3.65;;;;;;;;;;4484753;78;28549;-75
2022/05/23 22:47:06;;;;;;;7.80;4.05;;;;;;;;;;4442324;79;28506;-74
2022/05/23 22:53:13;;;;;;;7.95;4.42;;;;;;;;;;4449702;78;28568;-75
2022/05/23 22:59:20;;;;;;;6.37;3.60;;;;;;;;;;4495717;78;28538;-75
2022/05/23 23:05:21;;;;;;;5.33;3.50;;;;;;;;;;4486920;79;28526;-76
2022/05/23 23:11:24;;;;;;;5.17;3.52;;;;;;;;;;4394599;79;28512;-76
2022/05/23 23:17:27;;;;;;;7.78;3.90;;;;;;;;;;4464512;78;28542;-76
2022/05/23 23:23:28;;;;;;;5.40;3.27;;;;;;;;;;4496722;78;28515;-76
2022/05/23 23:29:29;;;;;;;5.47;3.42;;;;;;;;;;4472940;79;28559;-76
2022/05/23 23:41:49;;;;;;;5.60;3.75;;;;;;;;;;4394295;79;28459;-76
2022/05/23 23:47:54;;;;;;;6.03;3.80;;;;;;;;;;4426411;79;28508;-76
2022/05/23 23:53:55;;;;;;;7.05;3.70;;;;;;;;;;4407966;79;28523;-76
2022/05/23 23:59:56;;;;;;;6.83;3.92;;;;;;;;;;4396404;79;28502;-76
